sensor_id;sensor_type;location;lat;lon;timestamp;P1;durP1;ratioP1;P2;durP2;ratioP2
1380;SDS011;684;48.342;10.096;2023-07-22T00:00:59;5.27;;;2.43;;
1380;SDS011;684;48.342;10.096;2023-07-22T00:03:27;6.07;;;2.90;;
1380;SDS011;684;48.342;10.096;2023-07-22T00:06:03;7.27;;;2.60;;
1380;SDS011;684;48.342;10.096;2023-07-22T00:08:31;5.63;;;2.37;;
1380;SDS011;684;48.342;10.096;2023-07-22T00:10:58;6.43;;;3.20;;
1380;SDS011;684;48.342;10.096;2023-07-22T00:13:24;7.30;;;3.07;;
1380;SDS011;684;48.342;10.096;2023-07-22T00:15:53;7.10;;;3.10;;
1380;SDS011;684;48.342;10.096;2023-07-22T00:18:20;7.23;;;2.87;;
1380;SDS011;684;48.342;10.096;2023-07-22T00:20:47;6.20;;;3.03;;
1380;SDS011;684;48.342;10.096;2023-07-22T00:23:15;6.90;;;2.80;;
1380;SDS011;684;48.342;10.096;2023-07-22T00:25:42;6.00;;;2.80;;
1380;SDS011;684;48.342;10.096;2023-07-22T00:28:09;7.07;;;2.77;;
1380;SDS011;684;48.342;10.096;2023-07-22T00:30:36;5.40;;;2.50;;
1380;SDS011;684;48.342;10.096;2023-07-22T00:33:04;11.80;;;3.73;;
1380;SDS011;684;48.342;10.096;2023-07-22T00:35:31;7.40;;;3.07;;
1380;SDS011;684;48.342;10.096;2023-07-22T00:37:58;6.77;;;3.37;;
1380;SDS011;684;48.342;10.096;2023-07-22T00:40:24;6.67;;;3.53;;
1380;SDS011;684;48.342;10.096;2023-07-22T00:42:51;7.80;;;3.63;;
1380;SDS011;684;48.342;10.096;2023-07-22T00:45:18;9.13;;;4.70;;
1380;SDS011;684;48.342;10.096;2023-07-22T00:47:45;6.90;;;3.47;;
1380;SDS011;684;48.342;10.096;2023-07-22T00:50:13;9.10;;;4.33;;
1380;SDS011;684;48.342;10.096;2023-07-22T00:52:40;7.17;;;3.50;;
1380;SDS011;684;48.342;10.096;2023-07-22T00:55:07;8.00;;;3.70;;
1380;SDS011;684;48.342;10.096;2023-07-22T00:57:35;8.30;;;4.17;;
1380;SDS011;684;48.342;10.096;2023-07-22T01:00:03;8.47;;;3.90;;
1380;SDS011;684;48.342;10.096;2023-07-22T01:02:31;8.50;;;4.30;;
1380;SDS011;684;48.342;10.096;2023-07-22T01:04:59;11.27;;;4.27;;
1380;SDS011;684;48.342;10.096;2023-07-22T01:07:27;6.30;;;3.13;;
1380;SDS011;684;48.342;10.096;2023-07-22T01:09:55;8.33;;;4.00;;
1380;SDS011;684;48.342;10.096;2023-07-22T01:12:23;7.20;;;3.47;;
1380;SDS011;684;48.342;10.096;2023-07-22T01:14:50;7.03;;;3.23;;
1380;SDS011;684;48.342;10.096;2023-07-22T01:17:17;7.50;;;3.60;;
1380;SDS011;684;48.342;10.096;2023-07-22T01:19:45;7.87;;;3.83;;
1380;SDS011;684;48.342;10.096;2023-07-22T01:22:15;8.80;;;3.07;;
1380;SDS011;684;48.342;10.096;2023-07-22T01:24:44;9.47;;;3.50;;
1380;SDS011;684;48.342;10.096;2023-07-22T01:27:12;7.37;;;3.33;;
1380;SDS011;684;48.342;10.096;2023-07-22T01:29:39;7.87;;;3.80;;
1380;SDS011;684;48.342;10.096;2023-07-22T01:32:06;7.87;;;3.23;;
1380;SDS011;684;48.342;10.096;2023-07-22T01:34:33;7.83;;;3.40;;
1380;SDS011;684;48.342;10.096;2023-07-22T01:37:00;9.40;;;4.03;;
1380;SDS011;684;48.342;10.096;2023-07-22T01:39:27;6.80;;;3.27;;
1380;SDS011;684;48.342;10.096;2023-07-22T01:41:55;9.63;;;4.17;;
1380;SDS011;684;48.342;10.096;2023-07-22T01:44:21;11.17;;;3.20;;
1380;SDS011;684;48.342;10.096;2023-07-22T01:46:48;10.23;;;4.03;;
1380;SDS011;684;48.342;10.096;2023-07-22T01:49:15;8.07;;;3.80;;
1380;SDS011;684;48.342;10.096;2023-07-22T01:51:42;6.33;;;2.97;;
1380;SDS011;684;48.342;10.096;2023-07-22T01:54:08;6.53;;;3.10;;
1380;SDS011;684;48.342;10.096;2023-07-22T01:56:36;7.87;;;2.87;;
1380;SDS011;684;48.342;10.096;2023-07-22T01:59:04;8.80;;;3.17;;
1380;SDS011;684;48.342;10.096;2023-07-22T02:01:31;8.27;;;4.10;;
1380;SDS011;684;48.342;10.096;2023-07-22T02:03:58;6.97;;;3.03;;
1380;SDS011;684;48.342;10.096;2023-07-22T02:06:24;7.73;;;3.03;;
1380;SDS011;684;48.342;10.096;2023-07-22T02:08:52;7.00;;;3.37;;
1380;SDS011;684;48.342;10.096;2023-07-22T02:11:19;13.30;;;3.70;;
1380;SDS011;684;48.342;10.096;2023-07-22T02:13:46;6.90;;;3.40;;
1380;SDS011;684;48.342;10.096;2023-07-22T02:16:14;7.57;;;3.60;;
1380;SDS011;684;48.342;10.096;2023-07-22T02:18:41;9.73;;;3.30;;
1380;SDS011;684;48.342;10.096;2023-07-22T02:21:08;8.40;;;2.83;;
1380;SDS011;684;48.342;10.096;2023-07-22T02:23:35;8.63;;;4.00;;
1380;SDS011;684;48.342;10.096;2023-07-22T02:26:01;6.00;;;2.87;;
1380;SDS011;684;48.342;10.096;2023-07-22T02:28:29;6.43;;;3.27;;
1380;SDS011;684;48.342;10.096;2023-07-22T02:30:55;6.20;;;3.03;;
1380;SDS011;684;48.342;10.096;2023-07-22T02:33:31;7.80;;;2.87;;
1380;SDS011;684;48.342;10.096;2023-07-22T02:35:58;7.90;;;3.27;;
1380;SDS011;684;48.342;10.096;2023-07-22T02:38:25;6.80;;;3.13;;
1380;SDS011;684;48.342;10.096;2023-07-22T02:40:51;7.00;;;3.37;;
1380;SDS011;684;48.342;10.096;2023-07-22T02:43:18;7.47;;;2.80;;
1380;SDS011;684;48.342;10.096;2023-07-22T02:45:45;10.30;;;3.37;;
1380;SDS011;684;48.342;10.096;2023-07-22T02:48:12;12.13;;;4.27;;
1380;SDS011;684;48.342;10.096;2023-07-22T02:50:40;6.70;;;3.10;;
1380;SDS011;684;48.342;10.096;2023-07-22T02:53:07;13.83;;;5.17;;
1380;SDS011;684;48.342;10.096;2023-07-22T02:55:34;9.03;;;3.50;;
1380;SDS011;684;48.342;10.096;2023-07-22T02:58:01;7.43;;;3.50;;
1380;SDS011;684;48.342;10.096;2023-07-22T03:00:27;7.87;;;3.20;;
1380;SDS011;684;48.342;10.096;2023-07-22T03:02:55;9.07;;;3.73;;
1380;SDS011;684;48.342;10.096;2023-07-22T03:05:26;9.07;;;3.23;;
1380;SDS011;684;48.342;10.096;2023-07-22T03:07:54;7.20;;;3.70;;
1380;SDS011;684;48.342;10.096;2023-07-22T03:10:21;8.03;;;2.97;;
1380;SDS011;684;48.342;10.096;2023-07-22T03:12:50;8.23;;;3.87;;
1380;SDS011;684;48.342;10.096;2023-07-22T03:15:20;19.93;;;3.90;;
1380;SDS011;684;48.342;10.096;2023-07-22T03:17:47;9.47;;;3.70;;
1380;SDS011;684;48.342;10.096;2023-07-22T03:20:14;8.80;;;3.37;;
1380;SDS011;684;48.342;10.096;2023-07-22T03:22:41;10.40;;;3.80;;
1380;SDS011;684;48.342;10.096;2023-07-22T03:25:10;18.87;;;4.83;;
1380;SDS011;684;48.342;10.096;2023-07-22T03:27:37;8.00;;;3.60;;
1380;SDS011;684;48.342;10.096;2023-07-22T03:30:04;6.67;;;3.30;;
1380;SDS011;684;48.342;10.096;2023-07-22T03:32:32;12.33;;;4.27;;
1380;SDS011;684;48.342;10.096;2023-07-22T03:34:59;9.90;;;3.40;;
1380;SDS011;684;48.342;10.096;2023-07-22T03:37:27;9.13;;;3.93;;
1380;SDS011;684;48.342;10.096;2023-07-22T03:39:54;7.80;;;3.77;;
1380;SDS011;684;48.342;10.096;2023-07-22T03:42:22;6.13;;;3.30;;
1380;SDS011;684;48.342;10.096;2023-07-22T03:44:49;11.80;;;3.73;;
1380;SDS011;684;48.342;10.096;2023-07-22T03:47:16;11.20;;;5.67;;
1380;SDS011;684;48.342;10.096;2023-07-22T03:49:42;9.60;;;4.10;;
1380;SDS011;684;48.342;10.096;2023-07-22T03:52:09;7.97;;;3.87;;
1380;SDS011;684;48.342;10.096;2023-07-22T03:54:39;12.10;;;3.90;;
1380;SDS011;684;48.342;10.096;2023-07-22T03:57:05;8.20;;;4.13;;
1380;SDS011;684;48.342;10.096;2023-07-22T03:59:33;9.23;;;3.90;;
1380;SDS011;684;48.342;10.096;2023-07-22T04:02:00;11.43;;;4.17;;
1380;SDS011;684;48.342;10.096;2023-07-22T04:04:27;7.37;;;3.80;;
1380;SDS011;684;48.342;10.096;2023-07-22T04:06:54;7.90;;;3.60;;
1380;SDS011;684;48.342;10.096;2023-07-22T04:09:20;11.13;;;3.90;;
1380;SDS011;684;48.342;10.096;2023-07-22T04:11:47;7.60;;;4.33;;
1380;SDS011;684;48.342;10.096;2023-07-22T04:14:14;9.80;;;3.83;;
1380;SDS011;684;48.342;10.096;2023-07-22T04:16:42;15.50;;;5.20;;
1380;SDS011;684;48.342;10.096;2023-07-22T04:19:08;7.60;;;3.60;;
1380;SDS011;684;48.342;10.096;2023-07-22T04:21:35;7.37;;;3.40;;
1380;SDS011;684;48.342;10.096;2023-07-22T04:24:02;6.37;;;3.20;;
1380;SDS011;684;48.342;10.096;2023-07-22T04:26:29;7.23;;;3.70;;
1380;SDS011;684;48.342;10.096;2023-07-22T04:28:56;12.33;;;3.10;;
1380;SDS011;684;48.342;10.096;2023-07-22T04:31:22;7.30;;;3.47;;
1380;SDS011;684;48.342;10.096;2023-07-22T04:33:50;10.10;;;3.30;;
1380;SDS011;684;48.342;10.096;2023-07-22T04:36:17;8.83;;;3.70;;
1380;SDS011;684;48.342;10.096;2023-07-22T04:38:44;9.10;;;3.93;;
1380;SDS011;684;48.342;10.096;2023-07-22T04:41:10;14.57;;;3.73;;
1380;SDS011;684;48.342;10.096;2023-07-22T04:43:37;10.33;;;3.60;;
1380;SDS011;684;48.342;10.096;2023-07-22T04:46:05;9.27;;;3.87;;
1380;SDS011;684;48.342;10.096;2023-07-22T04:48:32;10.87;;;4.40;;
1380;SDS011;684;48.342;10.096;2023-07-22T04:51:00;8.97;;;3.97;;
1380;SDS011;684;48.342;10.096;2023-07-22T04:53:26;9.07;;;3.33;;
1380;SDS011;684;48.342;10.096;2023-07-22T04:55:53;9.20;;;3.47;;
1380;SDS011;684;48.342;10.096;2023-07-22T04:58:21;7.43;;;3.27;;
1380;SDS011;684;48.342;10.096;2023-07-22T05:00:49;10.47;;;4.40;;
1380;SDS011;684;48.342;10.096;2023-07-22T05:03:16;7.50;;;3.50;;
1380;SDS011;684;48.342;10.096;2023-07-22T05:05:44;9.23;;;3.10;;
1380;SDS011;684;48.342;10.096;2023-07-22T05:08:12;5.93;;;2.63;;
1380;SDS011;684;48.342;10.096;2023-07-22T05:10:39;6.70;;;2.93;;
1380;SDS011;684;48.342;10.096;2023-07-22T05:13:06;8.77;;;3.97;;
1380;SDS011;684;48.342;10.096;2023-07-22T05:15:32;7.90;;;3.60;;
1380;SDS011;684;48.342;10.096;2023-07-22T05:17:59;5.83;;;2.97;;
1380;SDS011;684;48.342;10.096;2023-07-22T05:20:26;6.40;;;3.30;;
1380;SDS011;684;48.342;10.096;2023-07-22T05:22:53;6.80;;;3.27;;
1380;SDS011;684;48.342;10.096;2023-07-22T05:25:22;5.80;;;2.80;;
1380;SDS011;684;48.342;10.096;2023-07-22T05:27:49;8.93;;;2.93;;
1380;SDS011;684;48.342;10.096;2023-07-22T05:30:16;7.03;;;2.77;;
1380;SDS011;684;48.342;10.096;2023-07-22T05:32:42;6.40;;;3.00;;
1380;SDS011;684;48.342;10.096;2023-07-22T05:35:09;7.23;;;2.97;;
1380;SDS011;684;48.342;10.096;2023-07-22T05:37:36;5.43;;;2.53;;
1380;SDS011;684;48.342;10.096;2023-07-22T05:40:03;7.07;;;2.77;;
1380;SDS011;684;48.342;10.096;2023-07-22T05:42:32;6.60;;;2.30;;
1380;SDS011;684;48.342;10.096;2023-07-22T05:44:58;6.13;;;2.50;;
1380;SDS011;684;48.342;10.096;2023-07-22T05:47:28;7.43;;;3.50;;
1380;SDS011;684;48.342;10.096;2023-07-22T05:49:54;5.73;;;2.87;;
1380;SDS011;684;48.342;10.096;2023-07-22T05:52:21;5.80;;;2.60;;
1380;SDS011;684;48.342;10.096;2023-07-22T05:54:48;6.90;;;3.00;;
1380;SDS011;684;48.342;10.096;2023-07-22T05:57:15;9.17;;;2.80;;
1380;SDS011;684;48.342;10.096;2023-07-22T05:59:43;5.87;;;3.03;;
1380;SDS011;684;48.342;10.096;2023-07-22T06:02:11;5.90;;;2.63;;
1380;SDS011;684;48.342;10.096;2023-07-22T06:04:39;7.27;;;2.83;;
1380;SDS011;684;48.342;10.096;2023-07-22T06:07:05;6.53;;;2.73;;
1380;SDS011;684;48.342;10.096;2023-07-22T06:09:32;5.33;;;2.57;;
1380;SDS011;684;48.342;10.096;2023-07-22T06:11:59;6.20;;;2.50;;
1380;SDS011;684;48.342;10.096;2023-07-22T06:14:25;7.40;;;2.67;;
1380;SDS011;684;48.342;10.096;2023-07-22T06:16:54;8.63;;;2.87;;
1380;SDS011;684;48.342;10.096;2023-07-22T06:19:20;7.33;;;2.90;;
1380;SDS011;684;48.342;10.096;2023-07-22T06:21:48;7.30;;;3.20;;
1380;SDS011;684;48.342;10.096;2023-07-22T06:24:15;4.70;;;2.37;;
1380;SDS011;684;48.342;10.096;2023-07-22T06:26:41;5.83;;;2.43;;
1380;SDS011;684;48.342;10.096;2023-07-22T06:29:08;5.97;;;3.20;;
1380;SDS011;684;48.342;10.096;2023-07-22T06:31:35;5.10;;;2.37;;
1380;SDS011;684;48.342;10.096;2023-07-22T06:34:03;5.27;;;2.37;;
1380;SDS011;684;48.342;10.096;2023-07-22T06:36:30;8.33;;;2.70;;
1380;SDS011;684;48.342;10.096;2023-07-22T06:38:56;8.63;;;2.80;;
1380;SDS011;684;48.342;10.096;2023-07-22T06:41:23;4.10;;;2.00;;
1380;SDS011;684;48.342;10.096;2023-07-22T06:43:50;6.00;;;2.50;;
1380;SDS011;684;48.342;10.096;2023-07-22T06:46:17;6.60;;;2.70;;
1380;SDS011;684;48.342;10.096;2023-07-22T06:48:44;6.40;;;2.13;;
1380;SDS011;684;48.342;10.096;2023-07-22T06:51:12;6.07;;;2.37;;
1380;SDS011;684;48.342;10.096;2023-07-22T06:53:38;5.00;;;2.07;;
1380;SDS011;684;48.342;10.096;2023-07-22T06:56:05;5.03;;;2.20;;
1380;SDS011;684;48.342;10.096;2023-07-22T06:58:32;9.73;;;2.53;;
1380;SDS011;684;48.342;10.096;2023-07-22T07:00:59;5.13;;;2.10;;
1380;SDS011;684;48.342;10.096;2023-07-22T07:03:26;5.80;;;2.90;;
1380;SDS011;684;48.342;10.096;2023-07-22T07:05:53;5.20;;;2.73;;
1380;SDS011;684;48.342;10.096;2023-07-22T07:08:21;4.83;;;2.13;;
1380;SDS011;684;48.342;10.096;2023-07-22T07:10:48;5.37;;;2.30;;
1380;SDS011;684;48.342;10.096;2023-07-22T07:13:16;4.33;;;2.37;;
1380;SDS011;684;48.342;10.096;2023-07-22T07:15:45;5.37;;;2.07;;
1380;SDS011;684;48.342;10.096;2023-07-22T07:18:13;4.53;;;2.20;;
1380;SDS011;684;48.342;10.096;2023-07-22T07:20:40;5.37;;;2.00;;
1380;SDS011;684;48.342;10.096;2023-07-22T07:23:06;5.10;;;2.07;;
1380;SDS011;684;48.342;10.096;2023-07-22T07:25:34;6.00;;;2.93;;
1380;SDS011;684;48.342;10.096;2023-07-22T07:28:01;6.40;;;2.17;;
1380;SDS011;684;48.342;10.096;2023-07-22T07:30:29;5.70;;;1.90;;
1380;SDS011;684;48.342;10.096;2023-07-22T07:32:55;3.93;;;1.67;;
1380;SDS011;684;48.342;10.096;2023-07-22T07:35:22;4.73;;;1.67;;
1380;SDS011;684;48.342;10.096;2023-07-22T07:37:49;6.03;;;2.00;;
1380;SDS011;684;48.342;10.096;2023-07-22T07:40:16;7.20;;;1.70;;
1380;SDS011;684;48.342;10.096;2023-07-22T07:42:44;6.73;;;2.13;;
1380;SDS011;684;48.342;10.096;2023-07-22T07:45:10;4.30;;;1.73;;
1380;SDS011;684;48.342;10.096;2023-07-22T07:47:37;3.97;;;1.60;;
1380;SDS011;684;48.342;10.096;2023-07-22T07:50:05;4.70;;;1.53;;
1380;SDS011;684;48.342;10.096;2023-07-22T07:52:32;4.07;;;1.70;;
1380;SDS011;684;48.342;10.096;2023-07-22T07:54:59;3.73;;;1.43;;
1380;SDS011;684;48.342;10.096;2023-07-22T07:57:26;5.10;;;1.93;;
1380;SDS011;684;48.342;10.096;2023-07-22T07:59:54;4.97;;;1.90;;
1380;SDS011;684;48.342;10.096;2023-07-22T08:02:21;6.20;;;1.80;;
1380;SDS011;684;48.342;10.096;2023-07-22T08:04:48;5.63;;;1.90;;
1380;SDS011;684;48.342;10.096;2023-07-22T08:07:15;7.60;;;1.50;;
1380;SDS011;684;48.342;10.096;2023-07-22T08:09:42;4.10;;;1.50;;
1380;SDS011;684;48.342;10.096;2023-07-22T08:12:13;5.27;;;2.33;;
1380;SDS011;684;48.342;10.096;2023-07-22T08:14:39;6.03;;;1.70;;
1380;SDS011;684;48.342;10.096;2023-07-22T08:17:08;5.53;;;1.57;;
1380;SDS011;684;48.342;10.096;2023-07-22T08:19:34;3.73;;;1.30;;
1380;SDS011;684;48.342;10.096;2023-07-22T08:22:01;4.57;;;1.40;;
1380;SDS011;684;48.342;10.096;2023-07-22T08:24:28;4.43;;;1.53;;
1380;SDS011;684;48.342;10.096;2023-07-22T08:26:55;4.50;;;1.40;;
1380;SDS011;684;48.342;10.096;2023-07-22T08:29:22;5.13;;;1.67;;
1380;SDS011;684;48.342;10.096;2023-07-22T08:31:49;4.03;;;1.60;;
1380;SDS011;684;48.342;10.096;2023-07-22T08:34:17;5.50;;;1.37;;
1380;SDS011;684;48.342;10.096;2023-07-22T08:36:44;3.33;;;1.40;;
1380;SDS011;684;48.342;10.096;2023-07-22T08:39:10;4.03;;;1.80;;
1380;SDS011;684;48.342;10.096;2023-07-22T08:41:37;4.57;;;1.30;;
1380;SDS011;684;48.342;10.096;2023-07-22T08:44:05;3.43;;;1.50;;
1380;SDS011;684;48.342;10.096;2023-07-22T08:46:34;3.90;;;1.57;;
1380;SDS011;684;48.342;10.096;2023-07-22T08:49:03;3.73;;;1.33;;
1380;SDS011;684;48.342;10.096;2023-07-22T08:51:33;3.83;;;1.23;;
1380;SDS011;684;48.342;10.096;2023-07-22T08:54:02;5.57;;;1.30;;
1380;SDS011;684;48.342;10.096;2023-07-22T08:56:29;3.60;;;1.43;;
1380;SDS011;684;48.342;10.096;2023-07-22T08:58:56;5.17;;;1.70;;
1380;SDS011;684;48.342;10.096;2023-07-22T09:01:24;3.83;;;1.40;;
1380;SDS011;684;48.342;10.096;2023-07-22T09:03:51;4.20;;;1.70;;
1380;SDS011;684;48.342;10.096;2023-07-22T09:06:21;3.70;;;1.50;;
1380;SDS011;684;48.342;10.096;2023-07-22T09:08:50;4.20;;;1.60;;
1380;SDS011;684;48.342;10.096;2023-07-22T09:11:17;3.80;;;1.40;;
1380;SDS011;684;48.342;10.096;2023-07-22T09:13:46;3.60;;;1.30;;
1380;SDS011;684;48.342;10.096;2023-07-22T09:16:14;4.50;;;1.57;;
1380;SDS011;684;48.342;10.096;2023-07-22T09:18:43;4.73;;;1.40;;
1380;SDS011;684;48.342;10.096;2023-07-22T09:21:10;4.03;;;1.50;;
1380;SDS011;684;48.342;10.096;2023-07-22T09:23:38;4.77;;;1.30;;
1380;SDS011;684;48.342;10.096;2023-07-22T09:26:09;3.90;;;1.10;;
1380;SDS011;684;48.342;10.096;2023-07-22T09:28:52;2.97;;;1.07;;
1380;SDS011;684;48.342;10.096;2023-07-22T09:31:20;4.27;;;1.40;;
1380;SDS011;684;48.342;10.096;2023-07-22T09:33:47;3.20;;;1.20;;
1380;SDS011;684;48.342;10.096;2023-07-22T09:36:15;4.63;;;1.60;;
1380;SDS011;684;48.342;10.096;2023-07-22T09:38:42;4.10;;;1.70;;
1380;SDS011;684;48.342;10.096;2023-07-22T09:41:10;4.90;;;1.67;;
1380;SDS011;684;48.342;10.096;2023-07-22T09:43:38;3.20;;;1.23;;
1380;SDS011;684;48.342;10.096;2023-07-22T09:46:05;3.60;;;1.30;;
1380;SDS011;684;48.342;10.096;2023-07-22T09:48:39;3.80;;;1.47;;
1380;SDS011;684;48.342;10.096;2023-07-22T09:51:10;3.63;;;1.40;;
1380;SDS011;684;48.342;10.096;2023-07-22T09:53:43;3.90;;;1.57;;
1380;SDS011;684;48.342;10.096;2023-07-22T09:56:12;3.80;;;1.30;;
1380;SDS011;684;48.342;10.096;2023-07-22T09:58:39;5.40;;;1.57;;
1380;SDS011;684;48.342;10.096;2023-07-22T10:01:07;5.57;;;1.60;;
1380;SDS011;684;48.342;10.096;2023-07-22T10:03:35;3.77;;;1.50;;
1380;SDS011;684;48.342;10.096;2023-07-22T10:06:05;4.00;;;1.30;;
1380;SDS011;684;48.342;10.096;2023-07-22T10:08:33;4.03;;;1.40;;
1380;SDS011;684;48.342;10.096;2023-07-22T10:11:01;6.80;;;1.60;;
1380;SDS011;684;48.342;10.096;2023-07-22T10:13:32;4.03;;;1.73;;
1380;SDS011;684;48.342;10.096;2023-07-22T10:15:59;4.93;;;1.60;;
1380;SDS011;684;48.342;10.096;2023-07-22T10:18:27;5.77;;;1.47;;
1380;SDS011;684;48.342;10.096;2023-07-22T10:20:55;4.60;;;1.30;;
1380;SDS011;684;48.342;10.096;2023-07-22T10:23:23;4.70;;;1.50;;
1380;SDS011;684;48.342;10.096;2023-07-22T10:25:51;4.23;;;1.33;;
1380;SDS011;684;48.342;10.096;2023-07-22T10:28:19;3.60;;;1.00;;
1380;SDS011;684;48.342;10.096;2023-07-22T10:30:47;5.10;;;1.60;;
1380;SDS011;684;48.342;10.096;2023-07-22T10:33:14;6.43;;;2.07;;
1380;SDS011;684;48.342;10.096;2023-07-22T10:35:43;4.43;;;1.73;;
1380;SDS011;684;48.342;10.096;2023-07-22T10:38:28;5.07;;;1.90;;
1380;SDS011;684;48.342;10.096;2023-07-22T10:40:55;5.77;;;1.50;;
1380;SDS011;684;48.342;10.096;2023-07-22T10:43:23;5.60;;;1.80;;
1380;SDS011;684;48.342;10.096;2023-07-22T10:45:53;5.20;;;1.67;;
1380;SDS011;684;48.342;10.096;2023-07-22T10:48:22;4.57;;;1.70;;
1380;SDS011;684;48.342;10.096;2023-07-22T10:50:51;5.30;;;1.30;;
1380;SDS011;684;48.342;10.096;2023-07-22T10:53:27;4.70;;;1.50;;
1380;SDS011;684;48.342;10.096;2023-07-22T10:56:05;5.37;;;1.50;;
1380;SDS011;684;48.342;10.096;2023-07-22T11:01:30;4.70;;;1.47;;
1380;SDS011;684;48.342;10.096;2023-07-22T11:06:56;4.20;;;1.83;;
1380;SDS011;684;48.342;10.096;2023-07-22T11:09:38;4.23;;;1.50;;
1380;SDS011;684;48.342;10.096;2023-07-22T11:12:07;5.40;;;1.93;;
1380;SDS011;684;48.342;10.096;2023-07-22T11:14:40;5.17;;;1.70;;
1380;SDS011;684;48.342;10.096;2023-07-22T11:17:12;4.20;;;1.63;;
1380;SDS011;684;48.342;10.096;2023-07-22T11:19:39;5.17;;;2.10;;
1380;SDS011;684;48.342;10.096;2023-07-22T11:22:06;5.07;;;1.90;;
1380;SDS011;684;48.342;10.096;2023-07-22T11:24:34;4.50;;;1.50;;
1380;SDS011;684;48.342;10.096;2023-07-22T11:27:02;5.00;;;2.13;;
1380;SDS011;684;48.342;10.096;2023-07-22T11:29:30;5.20;;;1.67;;
1380;SDS011;684;48.342;10.096;2023-07-22T11:31:57;4.50;;;1.87;;
1380;SDS011;684;48.342;10.096;2023-07-22T11:34:25;5.30;;;1.93;;
1380;SDS011;684;48.342;10.096;2023-07-22T11:36:53;5.37;;;1.90;;
1380;SDS011;684;48.342;10.096;2023-07-22T11:39:21;4.80;;;1.83;;
1380;SDS011;684;48.342;10.096;2023-07-22T11:41:50;4.40;;;1.50;;
1380;SDS011;684;48.342;10.096;2023-07-22T11:44:18;4.10;;;1.60;;
1380;SDS011;684;48.342;10.096;2023-07-22T11:46:46;6.50;;;2.20;;
1380;SDS011;684;48.342;10.096;2023-07-22T11:49:21;4.50;;;1.50;;
1380;SDS011;684;48.342;10.096;2023-07-22T11:51:50;4.60;;;1.60;;
1380;SDS011;684;48.342;10.096;2023-07-22T11:54:20;5.20;;;1.90;;
1380;SDS011;684;48.342;10.096;2023-07-22T11:56:47;4.60;;;1.80;;
1380;SDS011;684;48.342;10.096;2023-07-22T11:59:14;4.97;;;1.73;;
1380;SDS011;684;48.342;10.096;2023-07-22T12:01:42;5.20;;;2.07;;
1380;SDS011;684;48.342;10.096;2023-07-22T12:04:11;4.40;;;1.60;;
1380;SDS011;684;48.342;10.096;2023-07-22T12:06:38;3.90;;;1.40;;
1380;SDS011;684;48.342;10.096;2023-07-22T12:09:07;4.77;;;1.80;;
1380;SDS011;684;48.342;10.096;2023-07-22T12:11:35;7.90;;;2.00;;
1380;SDS011;684;48.342;10.096;2023-07-22T12:14:06;5.50;;;1.80;;
1380;SDS011;684;48.342;10.096;2023-07-22T12:16:36;5.20;;;1.83;;
1380;SDS011;684;48.342;10.096;2023-07-22T12:19:04;6.23;;;2.13;;
1380;SDS011;684;48.342;10.096;2023-07-22T12:21:33;4.60;;;1.90;;
1380;SDS011;684;48.342;10.096;2023-07-22T12:23:59;7.00;;;1.80;;
1380;SDS011;684;48.342;10.096;2023-07-22T12:26:29;4.70;;;1.67;;
1380;SDS011;684;48.342;10.096;2023-07-22T12:28:56;5.50;;;2.07;;
1380;SDS011;684;48.342;10.096;2023-07-22T12:31:22;5.07;;;2.13;;
1380;SDS011;684;48.342;10.096;2023-07-22T12:33:49;7.33;;;2.10;;
1380;SDS011;684;48.342;10.096;2023-07-22T12:36:16;4.63;;;1.90;;
1380;SDS011;684;48.342;10.096;2023-07-22T12:38:42;6.80;;;1.87;;
1380;SDS011;684;48.342;10.096;2023-07-22T12:41:09;5.17;;;2.07;;
1380;SDS011;684;48.342;10.096;2023-07-22T12:43:37;4.70;;;1.80;;
1380;SDS011;684;48.342;10.096;2023-07-22T12:46:04;5.97;;;2.67;;
1380;SDS011;684;48.342;10.096;2023-07-22T12:48:31;21.57;;;3.07;;
1380;SDS011;684;48.342;10.096;2023-07-22T12:50:57;5.83;;;1.93;;
1380;SDS011;684;48.342;10.096;2023-07-22T12:53:25;5.00;;;2.30;;
1380;SDS011;684;48.342;10.096;2023-07-22T12:55:52;5.27;;;2.03;;
1380;SDS011;684;48.342;10.096;2023-07-22T12:58:19;4.20;;;1.53;;
1380;SDS011;684;48.342;10.096;2023-07-22T13:00:47;5.27;;;2.00;;
1380;SDS011;684;48.342;10.096;2023-07-22T13:03:14;5.93;;;1.80;;
1380;SDS011;684;48.342;10.096;2023-07-22T13:05:40;5.43;;;2.37;;
1380;SDS011;684;48.342;10.096;2023-07-22T13:08:07;4.60;;;1.87;;
1380;SDS011;684;48.342;10.096;2023-07-22T13:10:34;4.87;;;2.13;;
1380;SDS011;684;48.342;10.096;2023-07-22T13:13:02;6.47;;;2.37;;
1380;SDS011;684;48.342;10.096;2023-07-22T13:15:29;5.40;;;2.10;;
1380;SDS011;684;48.342;10.096;2023-07-22T13:17:57;5.17;;;2.30;;
1380;SDS011;684;48.342;10.096;2023-07-22T13:20:24;5.80;;;2.17;;
1380;SDS011;684;48.342;10.096;2023-07-22T13:22:50;5.60;;;2.27;;
1380;SDS011;684;48.342;10.096;2023-07-22T13:25:17;5.03;;;1.90;;
1380;SDS011;684;48.342;10.096;2023-07-22T13:27:44;5.23;;;2.03;;
1380;SDS011;684;48.342;10.096;2023-07-22T13:30:11;4.60;;;1.97;;
1380;SDS011;684;48.342;10.096;2023-07-22T13:32:38;5.40;;;1.93;;
1380;SDS011;684;48.342;10.096;2023-07-22T13:35:07;5.50;;;2.40;;
1380;SDS011;684;48.342;10.096;2023-07-22T13:37:34;4.43;;;1.80;;
1380;SDS011;684;48.342;10.096;2023-07-22T13:40:01;5.10;;;2.40;;
1380;SDS011;684;48.342;10.096;2023-07-22T13:42:34;5.67;;;2.57;;
1380;SDS011;684;48.342;10.096;2023-07-22T13:45:01;7.00;;;2.47;;
1380;SDS011;684;48.342;10.096;2023-07-22T13:47:28;6.00;;;2.63;;
1380;SDS011;684;48.342;10.096;2023-07-22T13:49:54;5.60;;;2.30;;
1380;SDS011;684;48.342;10.096;2023-07-22T13:52:22;5.40;;;2.43;;
1380;SDS011;684;48.342;10.096;2023-07-22T13:54:49;4.97;;;2.10;;
1380;SDS011;684;48.342;10.096;2023-07-22T13:57:16;5.40;;;2.27;;
1380;SDS011;684;48.342;10.096;2023-07-22T13:59:42;4.63;;;1.90;;
1380;SDS011;684;48.342;10.096;2023-07-22T14:02:09;5.13;;;2.43;;
1380;SDS011;684;48.342;10.096;2023-07-22T14:04:36;6.27;;;2.70;;
1380;SDS011;684;48.342;10.096;2023-07-22T14:07:03;5.30;;;2.40;;
1380;SDS011;684;48.342;10.096;2023-07-22T14:09:31;6.10;;;2.70;;
1380;SDS011;684;48.342;10.096;2023-07-22T14:11:58;6.13;;;2.90;;
1380;SDS011;684;48.342;10.096;2023-07-22T14:14:25;6.17;;;2.30;;
1380;SDS011;684;48.342;10.096;2023-07-22T14:16:53;6.03;;;2.47;;
1380;SDS011;684;48.342;10.096;2023-07-22T14:19:20;6.60;;;3.10;;
1380;SDS011;684;48.342;10.096;2023-07-22T14:21:47;5.27;;;2.30;;
1380;SDS011;684;48.342;10.096;2023-07-22T14:24:14;5.17;;;2.07;;
1380;SDS011;684;48.342;10.096;2023-07-22T14:26:42;5.40;;;2.50;;
1380;SDS011;684;48.342;10.096;2023-07-22T14:29:09;5.63;;;2.77;;
1380;SDS011;684;48.342;10.096;2023-07-22T14:31:35;5.37;;;2.63;;
1380;SDS011;684;48.342;10.096;2023-07-22T14:34:02;6.77;;;3.10;;
1380;SDS011;684;48.342;10.096;2023-07-22T14:36:29;6.40;;;2.60;;
1380;SDS011;684;48.342;10.096;2023-07-22T14:38:55;5.13;;;2.33;;
1380;SDS011;684;48.342;10.096;2023-07-22T14:41:23;5.40;;;2.70;;
1380;SDS011;684;48.342;10.096;2023-07-22T14:43:51;5.17;;;2.70;;
1380;SDS011;684;48.342;10.096;2023-07-22T14:46:18;5.10;;;2.50;;
1380;SDS011;684;48.342;10.096;2023-07-22T14:48:44;6.07;;;2.70;;
1380;SDS011;684;48.342;10.096;2023-07-22T14:51:11;7.27;;;2.70;;
1380;SDS011;684;48.342;10.096;2023-07-22T14:53:38;8.70;;;2.67;;
1380;SDS011;684;48.342;10.096;2023-07-22T14:56:04;7.13;;;3.00;;
1380;SDS011;684;48.342;10.096;2023-07-22T14:58:32;6.07;;;3.03;;
1380;SDS011;684;48.342;10.096;2023-07-22T15:01:00;5.20;;;2.67;;
1380;SDS011;684;48.342;10.096;2023-07-22T15:03:27;5.40;;;2.60;;
1380;SDS011;684;48.342;10.096;2023-07-22T15:05:54;6.40;;;2.90;;
1380;SDS011;684;48.342;10.096;2023-07-22T15:08:20;6.17;;;2.17;;
1380;SDS011;684;48.342;10.096;2023-07-22T15:10:47;6.90;;;2.80;;
1380;SDS011;684;48.342;10.096;2023-07-22T15:13:14;6.40;;;3.27;;
1380;SDS011;684;48.342;10.096;2023-07-22T15:15:41;5.67;;;2.70;;
1380;SDS011;684;48.342;10.096;2023-07-22T15:18:09;6.60;;;2.70;;
1380;SDS011;684;48.342;10.096;2023-07-22T15:20:35;6.80;;;2.70;;
1380;SDS011;684;48.342;10.096;2023-07-22T15:23:02;6.30;;;2.80;;